Pagrindinis puslapis
METAR-TAF:

METAR-TAF

Oro uostai :

Shahrekord, Iranas

platuma: 32-20N, ilguma: 050-51E, Aukštis: 2078 m

Dabartinis oras

Ataskaita buvo paskelbta 45 minutes, ne 00:00 UTC
Vėjas 2 kt iš Šiaurės
Temperatūra -1°C
Drėgmė 28%
Slėgis 1025 hPa
Matomumas 10 km arba daugiau
nėra debesų žemiau 1500 m ir nėra kamuolinių lietaus debesų

METAR: OIFS 200000Z 01002KT CAVOK M01/M17 Q1025

Laikas: 04:15 (00:45 UTC)


TAF: trūkstamas

Orai ataskaitas ir orų prognozės (METAR, TAF).

turimą stotys yra geltonos ir raudonos taškus žemėlapyje.

Perkelti pele per norėdami pamatyti stoties vardą.

Tada spustelėkite, norėdami matyti oro stebėjimo ir prognozės.

Norėdami pakeisti žemėlapį: spustelėkite ant žalios mygtukų su juodo kryžiaus žemyn,; žalią mygtuką su brūkšneliu, jei norite nutolinti; arba žalių rodyklių gretimoms žemėlapius.


METAR-TAF: